sensor_id;sensor_type;location;lat;lon;timestamp;temperature;humidity
39875;DHT22;25547;52.530;13.194;2022-10-16T05:28:04;14.80;99.90
39875;DHT22;25547;52.530;13.194;2022-10-16T05:30:30;14.80;99.90
39875;DHT22;25547;52.530;13.194;2022-10-16T05:32:56;14.80;99.90
39875;DHT22;25547;52.530;13.194;2022-10-16T05:35:21;14.90;99.90
39875;DHT22;25547;52.530;13.194;2022-10-16T05:37:47;14.90;99.90
39875;DHT22;25547;52.530;13.194;2022-10-16T05:40:17;15.00;99.90
39875;DHT22;25547;52.530;13.194;2022-10-16T05:42:43;14.90;99.90
39875;DHT22;25547;52.530;13.194;2022-10-16T05:45:10;14.90;99.90
39875;DHT22;25547;52.530;13.194;2022-10-16T05:47:36;14.90;99.90
39875;DHT22;25547;52.530;13.194;2022-10-16T05:50:02;14.90;99.90
39875;DHT22;25547;52.530;13.194;2022-10-16T05:52:31;14.90;99.90
39875;DHT22;25547;52.530;13.194;2022-10-16T05:54:59;14.90;99.90
39875;DHT22;25547;52.530;13.194;2022-10-16T05:57:24;14.90;99.90
39875;DHT22;25547;52.530;13.194;2022-10-16T05:59:50;15.00;99.90
39875;DHT22;25547;52.530;13.194;2022-10-16T06:02:16;14.90;99.90
39875;DHT22;25547;52.530;13.194;2022-10-16T06:04:41;14.90;99.90
39875;DHT22;25547;52.530;13.194;2022-10-16T06:07:07;15.00;99.90
39875;DHT22;25547;52.530;13.194;2022-10-16T06:09:35;15.00;99.90
39875;DHT22;25547;52.530;13.194;2022-10-16T06:12:03;15.00;99.90
39875;DHT22;25547;52.530;13.194;2022-10-16T06:14:32;15.00;99.90
39875;DHT22;25547;52.530;13.194;2022-10-16T06:16:58;15.10;99.90
39875;DHT22;25547;52.530;13.194;2022-10-16T06:19:23;15.10;99.90
39875;DHT22;25547;52.530;13.194;2022-10-16T06:21:51;15.10;99.90
39875;DHT22;25547;52.530;13.194;2022-10-16T06:24:17;15.10;99.90
39875;DHT22;25547;52.530;13.194;2022-10-16T06:26:42;15.20;99.90
39875;DHT22;25547;52.530;13.194;2022-10-16T06:29:08;15.20;99.90
39875;DHT22;25547;52.530;13.194;2022-10-16T06:31:34;15.20;99.90
39875;DHT22;25547;52.530;13.194;2022-10-16T06:34:02;15.20;99.90
39875;DHT22;25547;52.530;13.194;2022-10-16T06:36:32;15.20;99.90
39875;DHT22;25547;52.530;13.194;2022-10-16T06:38:58;15.20;99.90
39875;DHT22;25547;52.530;13.194;2022-10-16T06:41:23;15.20;99.90
39875;DHT22;25547;52.530;13.194;2022-10-16T06:43:49;15.20;99.90
39875;DHT22;25547;52.530;13.194;2022-10-16T06:46:18;15.20;99.90
39875;DHT22;25547;52.530;13.194;2022-10-16T06:48:46;15.20;99.90
39875;DHT22;25547;52.530;13.194;2022-10-16T06:53:44;15.20;99.90
39875;DHT22;25547;52.530;13.194;2022-10-16T06:56:13;15.30;99.90
39875;DHT22;25547;52.530;13.194;2022-10-16T06:58:39;15.30;99.90
39875;DHT22;25547;52.530;13.194;2022-10-16T07:01:05;15.50;99.90
39875;DHT22;25547;52.530;13.194;2022-10-16T07:03:31;15.50;99.90
39875;DHT22;25547;52.530;13.194;2022-10-16T07:05:57;15.50;99.90
39875;DHT22;25547;52.530;13.194;2022-10-16T07:08:26;15.50;99.90
39875;DHT22;25547;52.530;13.194;2022-10-16T07:11:00;15.50;99.90
39875;DHT22;25547;52.530;13.194;2022-10-16T07:13:26;15.50;99.90
39875;DHT22;25547;52.530;13.194;2022-10-16T07:15:52;15.50;99.90
39875;DHT22;25547;52.530;13.194;2022-10-16T07:18:20;15.60;99.90
39875;DHT22;25547;52.530;13.194;2022-10-16T07:20:47;15.60;99.90
39875;DHT22;25547;52.530;13.194;2022-10-16T07:23:12;15.70;99.90
39875;DHT22;25547;52.530;13.194;2022-10-16T07:25:38;15.70;99.90
39875;DHT22;25547;52.530;13.194;2022-10-16T07:28:03;15.80;99.90
39875;DHT22;25547;52.530;13.194;2022-10-16T07:30:29;15.90;99.90
39875;DHT22;25547;52.530;13.194;2022-10-16T07:32:57;16.00;99.90
39875;DHT22;25547;52.530;13.194;2022-10-16T07:35:25;15.90;99.90
39875;DHT22;25547;52.530;13.194;2022-10-16T07:37:51;15.90;99.90
39875;DHT22;25547;52.530;13.194;2022-10-16T07:40:21;15.80;99.90
39875;DHT22;25547;52.530;13.194;2022-10-16T07:42:46;15.90;99.90
39875;DHT22;25547;52.530;13.194;2022-10-16T07:45:14;15.90;99.90
39875;DHT22;25547;52.530;13.194;2022-10-16T07:47:40;15.90;99.90
39875;DHT22;25547;52.530;13.194;2022-10-16T07:50:06;15.80;99.90
39875;DHT22;25547;52.530;13.194;2022-10-16T07:52:31;15.80;99.90
39875;DHT22;25547;52.530;13.194;2022-10-16T07:54:57;15.80;99.90
39875;DHT22;25547;52.530;13.194;2022-10-16T07:57:25;15.70;99.90
39875;DHT22;25547;52.530;13.194;2022-10-16T07:59:50;15.70;99.90
39875;DHT22;25547;52.530;13.194;2022-10-16T08:02:18;15.70;99.90
39875;DHT22;25547;52.530;13.194;2022-10-16T08:04:46;15.70;99.90
39875;DHT22;25547;52.530;13.194;2022-10-16T08:07:12;15.70;99.90
39875;DHT22;25547;52.530;13.194;2022-10-16T08:09:37;15.70;99.90
39875;DHT22;25547;52.530;13.194;2022-10-16T08:12:06;15.80;99.90
39875;DHT22;25547;52.530;13.194;2022-10-16T08:14:31;15.90;99.90
39875;DHT22;25547;52.530;13.194;2022-10-16T08:16:59;15.90;99.90
39875;DHT22;25547;52.530;13.194;2022-10-16T08:19:26;16.00;99.90
39875;DHT22;25547;52.530;13.194;2022-10-16T08:21:51;16.20;99.90
39875;DHT22;25547;52.530;13.194;2022-10-16T08:24:17;16.20;99.90
39875;DHT22;25547;52.530;13.194;2022-10-16T08:26:43;16.30;99.90
39875;DHT22;25547;52.530;13.194;2022-10-16T08:29:13;16.30;99.90
39875;DHT22;25547;52.530;13.194;2022-10-16T08:31:43;16.40;99.90
39875;DHT22;25547;52.530;13.194;2022-10-16T08:34:09;16.30;99.90
39875;DHT22;25547;52.530;13.194;2022-10-16T08:36:37;16.30;99.90
39875;DHT22;25547;52.530;13.194;2022-10-16T08:39:05;16.20;99.90
39875;DHT22;25547;52.530;13.194;2022-10-16T08:49:59;16.50;99.90
39875;DHT22;25547;52.530;13.194;2022-10-16T08:52:30;16.80;99.90
39875;DHT22;25547;52.530;13.194;2022-10-16T08:54:57;17.00;99.90
39875;DHT22;25547;52.530;13.194;2022-10-16T08:57:25;17.30;99.90
39875;DHT22;25547;52.530;13.194;2022-10-16T08:59:55;17.40;99.90
39875;DHT22;25547;52.530;13.194;2022-10-16T09:02:37;17.50;99.90
39875;DHT22;25547;52.530;13.194;2022-10-16T09:18:48;18.00;99.90
39875;DHT22;25547;52.530;13.194;2022-10-16T09:21:23;18.00;99.90
39875;DHT22;25547;52.530;13.194;2022-10-16T09:23:50;18.10;99.90
39875;DHT22;25547;52.530;13.194;2022-10-16T09:26:17;18.10;99.90
39875;DHT22;25547;52.530;13.194;2022-10-16T09:28:48;18.10;99.90
39875;DHT22;25547;52.530;13.194;2022-10-16T09:31:21;18.00;99.90
39875;DHT22;25547;52.530;13.194;2022-10-16T09:33:52;18.10;99.90
39875;DHT22;25547;52.530;13.194;2022-10-16T09:36:22;18.10;99.90
39875;DHT22;25547;52.530;13.194;2022-10-16T09:38:49;17.90;99.90
39875;DHT22;25547;52.530;13.194;2022-10-16T09:41:21;17.80;99.90
39875;DHT22;25547;52.530;13.194;2022-10-16T09:43:55;17.70;99.90
39875;DHT22;25547;52.530;13.194;2022-10-16T09:48:49;17.60;99.90
39875;DHT22;25547;52.530;13.194;2022-10-16T09:51:38;17.70;99.90
39875;DHT22;25547;52.530;13.194;2022-10-16T09:56:38;18.00;99.90
39875;DHT22;25547;52.530;13.194;2022-10-16T09:59:15;18.00;99.90
39875;DHT22;25547;52.530;13.194;2022-10-16T10:04:15;18.10;99.90
39875;DHT22;25547;52.530;13.194;2022-10-16T10:06:45;18.10;99.90
39875;DHT22;25547;52.530;13.194;2022-10-16T10:11:58;18.10;99.90
39875;DHT22;25547;52.530;13.194;2022-10-16T10:19:39;18.20;99.90
39875;DHT22;25547;52.530;13.194;2022-10-16T10:22:44;18.20;99.90
39875;DHT22;25547;52.530;13.194;2022-10-16T10:34:01;17.90;99.90
39875;DHT22;25547;52.530;13.194;2022-10-16T10:36:35;18.00;99.90
39875;DHT22;25547;52.530;13.194;2022-10-16T10:39:20;18.00;99.90
39875;DHT22;25547;52.530;13.194;2022-10-16T10:42:23;18.10;99.90
39875;DHT22;25547;52.530;13.194;2022-10-16T10:45:16;18.10;99.90
39875;DHT22;25547;52.530;13.194;2022-10-16T10:47:48;18.20;99.90
39875;DHT22;25547;52.530;13.194;2022-10-16T10:50:25;18.30;99.90
39875;DHT22;25547;52.530;13.194;2022-10-16T10:53:09;18.50;99.90
39875;DHT22;25547;52.530;13.194;2022-10-16T10:56:05;18.70;99.90
39875;DHT22;25547;52.530;13.194;2022-10-16T11:01:14;18.90;99.90
39875;DHT22;25547;52.530;13.194;2022-10-16T11:03:51;19.00;99.90
39875;DHT22;25547;52.530;13.194;2022-10-16T11:09:56;18.80;99.90
39875;DHT22;25547;52.530;13.194;2022-10-16T11:12:07;18.70;99.90
39875;DHT22;25547;52.530;13.194;2022-10-16T11:14:46;18.80;99.90
39875;DHT22;25547;52.530;13.194;2022-10-16T11:17:21;18.80;99.90
39875;DHT22;25547;52.530;13.194;2022-10-16T11:20:11;18.80;99.90
39875;DHT22;25547;52.530;13.194;2022-10-16T11:25:26;18.70;99.90
39875;DHT22;25547;52.530;13.194;2022-10-16T11:28:03;18.60;99.90
39875;DHT22;25547;52.530;13.194;2022-10-16T11:30:47;18.50;99.90
39875;DHT22;25547;52.530;13.194;2022-10-16T11:41:09;18.20;99.90
39875;DHT22;25547;52.530;13.194;2022-10-16T11:43:42;18.30;99.90
39875;DHT22;25547;52.530;13.194;2022-10-16T11:46:13;18.30;99.90
39875;DHT22;25547;52.530;13.194;2022-10-16T11:48:53;18.40;99.90
39875;DHT22;25547;52.530;13.194;2022-10-16T11:51:23;18.30;99.90
39875;DHT22;25547;52.530;13.194;2022-10-16T11:54:02;18.30;99.90
39875;DHT22;25547;52.530;13.194;2022-10-16T11:56:32;18.40;99.90
39875;DHT22;25547;52.530;13.194;2022-10-16T11:59:33;18.40;99.90
39875;DHT22;25547;52.530;13.194;2022-10-16T12:04:48;18.50;99.90
39875;DHT22;25547;52.530;13.194;2022-10-16T12:07:27;18.60;99.90
39875;DHT22;25547;52.530;13.194;2022-10-16T12:09:56;18.60;99.90
39875;DHT22;25547;52.530;13.194;2022-10-16T12:15:20;18.60;99.90
39875;DHT22;25547;52.530;13.194;2022-10-16T12:17:46;18.50;99.90
39875;DHT22;25547;52.530;13.194;2022-10-16T12:22:56;18.80;99.90
39875;DHT22;25547;52.530;13.194;2022-10-16T12:25:24;18.70;99.90
39875;DHT22;25547;52.530;13.194;2022-10-16T12:28:01;18.70;99.90
39875;DHT22;25547;52.530;13.194;2022-10-16T12:30:32;18.80;99.90
39875;DHT22;25547;52.530;13.194;2022-10-16T12:33:02;18.80;99.90
39875;DHT22;25547;52.530;13.194;2022-10-16T12:35:34;18.70;99.90
39875;DHT22;25547;52.530;13.194;2022-10-16T12:38:48;18.60;99.90
39875;DHT22;25547;52.530;13.194;2022-10-16T12:41:07;18.70;99.90
39875;DHT22;25547;52.530;13.194;2022-10-16T12:43:39;18.80;99.90
39875;DHT22;25547;52.530;13.194;2022-10-16T12:48:42;18.80;99.90
39875;DHT22;25547;52.530;13.194;2022-10-16T12:53:37;18.80;99.50
39875;DHT22;25547;52.530;13.194;2022-10-16T12:56:21;18.70;99.90
39875;DHT22;25547;52.530;13.194;2022-10-16T12:59:09;18.80;99.90
39875;DHT22;25547;52.530;13.194;2022-10-16T13:04:55;18.80;99.80
39875;DHT22;25547;52.530;13.194;2022-10-16T13:10:32;18.70;99.60
39875;DHT22;25547;52.530;13.194;2022-10-16T13:15:50;18.70;99.90
39875;DHT22;25547;52.530;13.194;2022-10-16T13:18:35;18.60;99.80
39875;DHT22;25547;52.530;13.194;2022-10-16T13:23:39;18.60;99.00
39875;DHT22;25547;52.530;13.194;2022-10-16T13:26:26;18.70;99.10
39875;DHT22;25547;52.530;13.194;2022-10-16T13:28:59;18.70;98.80
39875;DHT22;25547;52.530;13.194;2022-10-16T13:31:30;18.80;97.70
39875;DHT22;25547;52.530;13.194;2022-10-16T13:34:01;18.70;96.80
39875;DHT22;25547;52.530;13.194;2022-10-16T13:36:30;18.80;96.10
39875;DHT22;25547;52.530;13.194;2022-10-16T13:39:14;18.80;95.50
39875;DHT22;25547;52.530;13.194;2022-10-16T13:41:40;18.80;95.60
39875;DHT22;25547;52.530;13.194;2022-10-16T13:44:14;18.90;95.80
39875;DHT22;25547;52.530;13.194;2022-10-16T13:46:40;18.90;95.10
39875;DHT22;25547;52.530;13.194;2022-10-16T13:49:15;18.90;95.10
39875;DHT22;25547;52.530;13.194;2022-10-16T13:51:42;18.90;95.00
39875;DHT22;25547;52.530;13.194;2022-10-16T13:54:18;18.90;95.10
39875;DHT22;25547;52.530;13.194;2022-10-16T13:56:44;18.90;95.40
39875;DHT22;25547;52.530;13.194;2022-10-16T13:59:27;18.90;95.50
39875;DHT22;25547;52.530;13.194;2022-10-16T14:01:58;18.90;95.70
39875;DHT22;25547;52.530;13.194;2022-10-16T14:04:28;18.90;95.70
39875;DHT22;25547;52.530;13.194;2022-10-16T14:06:56;18.80;95.90
39875;DHT22;25547;52.530;13.194;2022-10-16T14:11:53;18.80;96.40
39875;DHT22;25547;52.530;13.194;2022-10-16T14:14:20;18.70;96.80
39875;DHT22;25547;52.530;13.194;2022-10-16T14:16:49;18.70;97.30
39875;DHT22;25547;52.530;13.194;2022-10-16T14:19:25;18.70;97.70
39875;DHT22;25547;52.530;13.194;2022-10-16T14:21:52;18.70;98.00
39875;DHT22;25547;52.530;13.194;2022-10-16T14:26:56;18.80;97.20
39875;DHT22;25547;52.530;13.194;2022-10-16T14:29:23;18.90;96.10
39875;DHT22;25547;52.530;13.194;2022-10-16T14:34:34;18.70;96.80
39875;DHT22;25547;52.530;13.194;2022-10-16T14:37:19;18.70;96.10
39875;DHT22;25547;52.530;13.194;2022-10-16T14:39:52;18.70;96.30
39875;DHT22;25547;52.530;13.194;2022-10-16T14:42:20;18.70;95.90
39875;DHT22;25547;52.530;13.194;2022-10-16T14:44:46;18.70;95.70
39875;DHT22;25547;52.530;13.194;2022-10-16T14:47:17;18.70;95.10
39875;DHT22;25547;52.530;13.194;2022-10-16T14:49:50;18.70;94.90
39875;DHT22;25547;52.530;13.194;2022-10-16T14:52:18;18.60;94.70
39875;DHT22;25547;52.530;13.194;2022-10-16T14:54:47;18.50;95.00
39875;DHT22;25547;52.530;13.194;2022-10-16T14:57:18;18.60;94.90
39875;DHT22;25547;52.530;13.194;2022-10-16T14:59:47;18.50;95.00
39875;DHT22;25547;52.530;13.194;2022-10-16T15:04:45;18.50;95.20
39875;DHT22;25547;52.530;13.194;2022-10-16T15:07:11;18.40;95.50
39875;DHT22;25547;52.530;13.194;2022-10-16T15:09:36;18.50;95.40
39875;DHT22;25547;52.530;13.194;2022-10-16T15:12:02;18.40;95.50
39875;DHT22;25547;52.530;13.194;2022-10-16T15:14:28;18.40;95.70
39875;DHT22;25547;52.530;13.194;2022-10-16T15:16:53;18.40;95.90
39875;DHT22;25547;52.530;13.194;2022-10-16T15:19:21;18.30;96.10
39875;DHT22;25547;52.530;13.194;2022-10-16T15:21:47;18.20;96.70
39875;DHT22;25547;52.530;13.194;2022-10-16T15:24:13;18.10;97.10
39875;DHT22;25547;52.530;13.194;2022-10-16T15:26:39;18.10;97.30
39875;DHT22;25547;52.530;13.194;2022-10-16T15:29:05;18.00;97.70
39875;DHT22;25547;52.530;13.194;2022-10-16T15:31:34;17.90;98.00
39875;DHT22;25547;52.530;13.194;2022-10-16T15:33:59;17.90;98.10
39875;DHT22;25547;52.530;13.194;2022-10-16T15:36:31;17.90;98.70
39875;DHT22;25547;52.530;13.194;2022-10-16T15:39:02;17.80;98.80
39875;DHT22;25547;52.530;13.194;2022-10-16T15:41:27;17.70;98.90
39875;DHT22;25547;52.530;13.194;2022-10-16T15:43:53;17.70;99.20
39875;DHT22;25547;52.530;13.194;2022-10-16T15:46:20;17.60;99.80
39875;DHT22;25547;52.530;13.194;2022-10-16T15:48:48;17.60;99.70
39875;DHT22;25547;52.530;13.194;2022-10-16T15:51:14;17.50;99.90
39875;DHT22;25547;52.530;13.194;2022-10-16T15:53:40;17.50;99.90
39875;DHT22;25547;52.530;13.194;2022-10-16T15:56:07;17.40;99.90
39875;DHT22;25547;52.530;13.194;2022-10-16T15:58:36;17.40;99.90
39875;DHT22;25547;52.530;13.194;2022-10-16T16:01:04;17.30;99.90
39875;DHT22;25547;52.530;13.194;2022-10-16T16:03:33;17.30;99.90
39875;DHT22;25547;52.530;13.194;2022-10-16T16:06:04;17.20;99.90
39875;DHT22;25547;52.530;13.194;2022-10-16T16:08:33;17.20;99.90
39875;DHT22;25547;52.530;13.194;2022-10-16T16:11:01;17.20;99.90
39875;DHT22;25547;52.530;13.194;2022-10-16T16:13:30;17.10;99.90
39875;DHT22;25547;52.530;13.194;2022-10-16T16:15:55;17.00;99.90
39875;DHT22;25547;52.530;13.194;2022-10-16T16:18:21;17.00;99.90
39875;DHT22;25547;52.530;13.194;2022-10-16T16:20:52;17.00;99.90
39875;DHT22;25547;52.530;13.194;2022-10-16T16:23:18;16.90;99.90
39875;DHT22;25547;52.530;13.194;2022-10-16T16:26:12;16.90;99.90
39875;DHT22;25547;52.530;13.194;2022-10-16T16:28:39;16.80;99.90
39875;DHT22;25547;52.530;13.194;2022-10-16T16:31:05;16.80;99.90
39875;DHT22;25547;52.530;13.194;2022-10-16T16:33:31;16.70;99.90
39875;DHT22;25547;52.530;13.194;2022-10-16T16:36:03;16.70;99.90
39875;DHT22;25547;52.530;13.194;2022-10-16T16:38:32;16.60;99.90
39875;DHT22;25547;52.530;13.194;2022-10-16T16:40:58;16.60;99.90
39875;DHT22;25547;52.530;13.194;2022-10-16T16:43:25;16.60;99.90
39875;DHT22;25547;52.530;13.194;2022-10-16T16:45:51;16.50;99.90
39875;DHT22;25547;52.530;13.194;2022-10-16T16:48:19;16.50;99.90
39875;DHT22;25547;52.530;13.194;2022-10-16T16:50:45;16.50;99.90
39875;DHT22;25547;52.530;13.194;2022-10-16T16:53:10;16.40;99.90
39875;DHT22;25547;52.530;13.194;2022-10-16T16:55:36;16.40;99.90
39875;DHT22;25547;52.530;13.194;2022-10-16T16:58:04;16.40;99.90
39875;DHT22;25547;52.530;13.194;2022-10-16T17:00:32;16.40;99.90
39875;DHT22;25547;52.530;13.194;2022-10-16T17:02:57;16.30;99.90
39875;DHT22;25547;52.530;13.194;2022-10-16T17:05:23;16.20;99.90
39875;DHT22;25547;52.530;13.194;2022-10-16T17:07:49;16.20;99.90
39875;DHT22;25547;52.530;13.194;2022-10-16T17:10:14;16.20;99.90
39875;DHT22;25547;52.530;13.194;2022-10-16T17:12:40;16.10;99.90
39875;DHT22;25547;52.530;13.194;2022-10-16T17:15:10;16.10;99.90
39875;DHT22;25547;52.530;13.194;2022-10-16T17:17:36;16.10;99.90
39875;DHT22;25547;52.530;13.194;2022-10-16T17:20:05;16.00;99.90
39875;DHT22;25547;52.530;13.194;2022-10-16T17:22:31;16.00;99.90
39875;DHT22;25547;52.530;13.194;2022-10-16T17:24:57;15.90;99.90
39875;DHT22;25547;52.530;13.194;2022-10-16T17:27:22;15.90;99.90
39875;DHT22;25547;52.530;13.194;2022-10-16T17:29:51;15.80;99.90
39875;DHT22;25547;52.530;13.194;2022-10-16T17:32:21;15.80;99.90
39875;DHT22;25547;52.530;13.194;2022-10-16T17:34:50;15.70;99.90
39875;DHT22;25547;52.530;13.194;2022-10-16T17:37:15;15.70;99.90
39875;DHT22;25547;52.530;13.194;2022-10-16T17:39:41;15.70;99.90
39875;DHT22;25547;52.530;13.194;2022-10-16T17:42:07;15.60;99.90
39875;DHT22;25547;52.530;13.194;2022-10-16T17:44:32;15.60;99.90
39875;DHT22;25547;52.530;13.194;2022-10-16T17:47:00;15.50;99.90
39875;DHT22;25547;52.530;13.194;2022-10-16T17:49:28;15.50;99.90
39875;DHT22;25547;52.530;13.194;2022-10-16T17:51:54;15.40;99.90
39875;DHT22;25547;52.530;13.194;2022-10-16T17:54:19;15.40;99.90
39875;DHT22;25547;52.530;13.194;2022-10-16T17:56:45;15.30;99.90
39875;DHT22;25547;52.530;13.194;2022-10-16T17:59:13;15.30;99.90
39875;DHT22;25547;52.530;13.194;2022-10-16T18:01:40;15.20;99.90
39875;DHT22;25547;52.530;13.194;2022-10-16T18:04:11;15.10;99.90
39875;DHT22;25547;52.530;13.194;2022-10-16T18:06:38;15.10;99.90
39875;DHT22;25547;52.530;13.194;2022-10-16T18:09:05;15.00;99.90
39875;DHT22;25547;52.530;13.194;2022-10-16T18:11:34;15.00;99.90
39875;DHT22;25547;52.530;13.194;2022-10-16T18:14:00;15.00;99.90
39875;DHT22;25547;52.530;13.194;2022-10-16T18:16:29;15.10;99.90
39875;DHT22;25547;52.530;13.194;2022-10-16T18:18:56;15.10;99.90
39875;DHT22;25547;52.530;13.194;2022-10-16T18:21:25;15.00;99.90
39875;DHT22;25547;52.530;13.194;2022-10-16T18:23:58;15.00;99.90
39875;DHT22;25547;52.530;13.194;2022-10-16T18:26:27;15.10;99.90
39875;DHT22;25547;52.530;13.194;2022-10-16T18:28:56;15.00;99.90
39875;DHT22;25547;52.530;13.194;2022-10-16T18:31:30;15.00;99.90
39875;DHT22;25547;52.530;13.194;2022-10-16T18:33:56;14.80;99.90
39875;DHT22;25547;52.530;13.194;2022-10-16T18:36:29;14.70;99.90
39875;DHT22;25547;52.530;13.194;2022-10-16T18:38:58;14.70;99.90
39875;DHT22;25547;52.530;13.194;2022-10-16T18:41:25;14.80;99.90
39875;DHT22;25547;52.530;13.194;2022-10-16T18:43:51;14.70;99.90
39875;DHT22;25547;52.530;13.194;2022-10-16T18:46:19;14.70;99.90
39875;DHT22;25547;52.530;13.194;2022-10-16T18:48:45;14.70;99.90
39875;DHT22;25547;52.530;13.194;2022-10-16T18:53:49;14.60;99.90
39875;DHT22;25547;52.530;13.194;2022-10-16T18:56:16;14.50;99.90
39875;DHT22;25547;52.530;13.194;2022-10-16T18:58:46;14.40;99.90
39875;DHT22;25547;52.530;13.194;2022-10-16T19:01:20;14.30;99.90
39875;DHT22;25547;52.530;13.194;2022-10-16T19:03:48;14.40;99.90
39875;DHT22;25547;52.530;13.194;2022-10-16T19:06:16;14.40;99.90
39875;DHT22;25547;52.530;13.194;2022-10-16T19:08:42;14.40;99.90
39875;DHT22;25547;52.530;13.194;2022-10-16T19:11:11;14.50;99.90
39875;DHT22;25547;52.530;13.194;2022-10-16T19:13:36;14.40;99.90
39875;DHT22;25547;52.530;13.194;2022-10-16T19:16:11;14.30;99.90
39875;DHT22;25547;52.530;13.194;2022-10-16T19:18:41;14.30;99.90
39875;DHT22;25547;52.530;13.194;2022-10-16T19:21:09;14.30;99.90
39875;DHT22;25547;52.530;13.194;2022-10-16T19:23:36;14.30;99.90
39875;DHT22;25547;52.530;13.194;2022-10-16T19:26:09;14.30;99.90
39875;DHT22;25547;52.530;13.194;2022-10-16T19:28:35;14.30;99.90
39875;DHT22;25547;52.530;13.194;2022-10-16T19:31:06;14.30;99.90
39875;DHT22;25547;52.530;13.194;2022-10-16T19:33:34;14.40;99.90
39875;DHT22;25547;52.530;13.194;2022-10-16T19:38:36;14.40;99.90
39875;DHT22;25547;52.530;13.194;2022-10-16T19:41:10;14.40;99.90
39875;DHT22;25547;52.530;13.194;2022-10-16T19:43:37;14.40;99.90
39875;DHT22;25547;52.530;13.194;2022-10-16T19:46:13;14.30;99.90
39875;DHT22;25547;52.530;13.194;2022-10-16T19:48:42;14.20;99.90
39875;DHT22;25547;52.530;13.194;2022-10-16T19:51:13;14.20;99.90
39875;DHT22;25547;52.530;13.194;2022-10-16T19:53:39;14.40;99.90
39875;DHT22;25547;52.530;13.194;2022-10-16T19:56:19;14.40;99.90
39875;DHT22;25547;52.530;13.194;2022-10-16T19:58:49;14.40;99.90
39875;DHT22;25547;52.530;13.194;2022-10-16T20:01:16;14.20;99.90
39875;DHT22;25547;52.530;13.194;2022-10-16T20:03:46;14.10;99.90
39875;DHT22;25547;52.530;13.194;2022-10-16T20:06:13;14.10;99.90
39875;DHT22;25547;52.530;13.194;2022-10-16T20:08:40;14.10;99.90
39875;DHT22;25547;52.530;13.194;2022-10-16T20:11:16;14.00;99.90
39875;DHT22;25547;52.530;13.194;2022-10-16T20:13:45;13.90;99.90
39875;DHT22;25547;52.530;13.194;2022-10-16T20:16:14;13.90;99.90
39875;DHT22;25547;52.530;13.194;2022-10-16T20:18:42;14.00;99.90
39875;DHT22;25547;52.530;13.194;2022-10-16T20:21:14;14.00;99.90
39875;DHT22;25547;52.530;13.194;2022-10-16T20:23:40;14.00;99.90
39875;DHT22;25547;52.530;13.194;2022-10-16T20:26:06;14.10;99.90
39875;DHT22;25547;52.530;13.194;2022-10-16T20:28:32;14.20;99.90
39875;DHT22;25547;52.530;13.194;2022-10-16T20:31:04;14.20;99.90
39875;DHT22;25547;52.530;13.194;2022-10-16T20:33:34;14.20;99.90
39875;DHT22;25547;52.530;13.194;2022-10-16T20:36:00;14.20;99.90
39875;DHT22;25547;52.530;13.194;2022-10-16T20:38:26;14.20;99.90
39875;DHT22;25547;52.530;13.194;2022-10-16T20:40:51;14.20;99.90
39875;DHT22;25547;52.530;13.194;2022-10-16T20:43:18;14.20;99.90
39875;DHT22;25547;52.530;13.194;2022-10-16T20:45:44;14.30;99.90
39875;DHT22;25547;52.530;13.194;2022-10-16T20:48:11;14.20;99.90
39875;DHT22;25547;52.530;13.194;2022-10-16T20:50:38;14.10;99.90
39875;DHT22;25547;52.530;13.194;2022-10-16T20:53:03;14.20;99.90
39875;DHT22;25547;52.530;13.194;2022-10-16T20:55:34;14.10;99.90
39875;DHT22;25547;52.530;13.194;2022-10-16T20:58:00;14.20;99.90
39875;DHT22;25547;52.530;13.194;2022-10-16T21:00:25;14.20;99.90
39875;DHT22;25547;52.530;13.194;2022-10-16T21:02:51;14.20;99.90
39875;DHT22;25547;52.530;13.194;2022-10-16T21:05:18;14.20;99.90
39875;DHT22;25547;52.530;13.194;2022-10-16T21:07:44;14.30;99.90
39875;DHT22;25547;52.530;13.194;2022-10-16T21:10:09;14.30;99.90
39875;DHT22;25547;52.530;13.194;2022-10-16T21:12:35;14.30;99.90
39875;DHT22;25547;52.530;13.194;2022-10-16T21:15:06;14.30;99.90
39875;DHT22;25547;52.530;13.194;2022-10-16T21:17:32;14.30;99.90
39875;DHT22;25547;52.530;13.194;2022-10-16T21:20:00;14.30;99.90
39875;DHT22;25547;52.530;13.194;2022-10-16T21:22:29;14.20;99.90
39875;DHT22;25547;52.530;13.194;2022-10-16T21:24:55;14.10;99.90
39875;DHT22;25547;52.530;13.194;2022-10-16T21:27:21;14.00;99.90
39875;DHT22;25547;52.530;13.194;2022-10-16T21:29:46;14.00;99.90
39875;DHT22;25547;52.530;13.194;2022-10-16T21:32:12;14.00;99.90
39875;DHT22;25547;52.530;13.194;2022-10-16T21:34:38;14.10;99.90
39875;DHT22;25547;52.530;13.194;2022-10-16T21:37:05;14.20;99.90
39875;DHT22;25547;52.530;13.194;2022-10-16T21:39:31;14.10;99.90
39875;DHT22;25547;52.530;13.194;2022-10-16T21:42:02;14.10;99.90
39875;DHT22;25547;52.530;13.194;2022-10-16T21:44:27;14.00;99.90
39875;DHT22;25547;52.530;13.194;2022-10-16T21:46:55;13.90;99.90
39875;DHT22;25547;52.530;13.194;2022-10-16T21:49:23;13.70;99.90
39875;DHT22;25547;52.530;13.194;2022-10-16T21:51:49;13.70;99.90
39875;DHT22;25547;52.530;13.194;2022-10-16T21:54:18;13.70;99.90
39875;DHT22;25547;52.530;13.194;2022-10-16T21:56:44;13.80;99.90
39875;DHT22;25547;52.530;13.194;2022-10-16T21:59:12;13.90;99.90
39875;DHT22;25547;52.530;13.194;2022-10-16T22:01:43;14.00;99.90
39875;DHT22;25547;52.530;13.194;2022-10-16T22:04:12;13.90;99.90
39875;DHT22;25547;52.530;13.194;2022-10-16T22:06:41;13.90;99.90
39875;DHT22;25547;52.530;13.194;2022-10-16T22:09:10;14.00;99.90
39875;DHT22;25547;52.530;13.194;2022-10-16T22:11:40;14.10;99.90
39875;DHT22;25547;52.530;13.194;2022-10-16T22:14:10;14.10;99.90
39875;DHT22;25547;52.530;13.194;2022-10-16T22:16:36;14.00;99.90
39875;DHT22;25547;52.530;13.194;2022-10-16T22:19:03;14.00;99.90
39875;DHT22;25547;52.530;13.194;2022-10-16T22:21:32;14.00;99.90
39875;DHT22;25547;52.530;13.194;2022-10-16T22:23:58;14.00;99.90
39875;DHT22;25547;52.530;13.194;2022-10-16T22:26:25;13.90;99.90
39875;DHT22;25547;52.530;13.194;2022-10-16T22:28:53;13.90;99.90
39875;DHT22;25547;52.530;13.194;2022-10-16T22:31:21;13.80;99.90
39875;DHT22;25547;52.530;13.194;2022-10-16T22:34:00;13.90;99.90
39875;DHT22;25547;52.530;13.194;2022-10-16T22:36:27;13.80;99.90
39875;DHT22;25547;52.530;13.194;2022-10-16T22:38:55;13.80;99.90
39875;DHT22;25547;52.530;13.194;2022-10-16T22:41:21;13.80;99.90